Decoded Metar for MDAB (SAMANA in DOMINICAN REPUBLIC) (IATA:N/A) | Meteo·Mobile Aviation Weather
aviador You're here:

MDAB Decoded Metar

SAMANA in DOMINICAN REPUBLIC
Report Time2018-12-14 16:00:00
UTC Time2018-12-14 16:51:45
Flight Rules vfr VFR
Wind090° at 10 kt
W.Decomp.*RWY 11: 9.9 kt HW 1.6 kt LCW
W.Rank090° ranks 1
Current wind is above 090° avg. (7.1)
Visibility9999 m
Phenomena:N/A
Clouds:Scattered 018 Hf
Expected CloudBase > 2,000 ft AGL from Temp-Dew spread
CeilingNone
Temp29°C (ISA +14)
Dew Point24°C (74% RH)
Heat Index33.5°C
QNH1019 hPa
Density Alt1,939 ft
Elevation115 ft
Report Wrong Elevation
Raw Report
METAR MDAB 141600Z 09010KT 9999 SCT018 29/24 Q1019=

Extra information for MDAB:More info

Metar Taf Metar & Taf Last 4 Metars F.Rules Stats Wind Profile Meteogram Temp Stats Airport Information Weather charts Add Link Nearby VenuesMetar ALERT Operation Metar Decoded Social comments